sensor_id;sensor_type;location;lat;lon;timestamp;temperature;humidity
26326;DHT22;14032;52.510;7.342;2023-05-19T00:00:40;9.30;99.90
26326;DHT22;14032;52.510;7.342;2023-05-19T00:03:09;9.30;99.90
26326;DHT22;14032;52.510;7.342;2023-05-19T00:05:35;9.20;99.90
26326;DHT22;14032;52.510;7.342;2023-05-19T00:08:10;9.20;99.90
26326;DHT22;14032;52.510;7.342;2023-05-19T00:10:38;9.20;99.90
26326;DHT22;14032;52.510;7.342;2023-05-19T00:13:03;9.20;99.90
26326;DHT22;14032;52.510;7.342;2023-05-19T00:15:29;9.20;99.90
26326;DHT22;14032;52.510;7.342;2023-05-19T00:17:55;9.10;99.90
26326;DHT22;14032;52.510;7.342;2023-05-19T00:20:21;9.10;99.90
26326;DHT22;14032;52.510;7.342;2023-05-19T00:22:47;9.10;99.90
26326;DHT22;14032;52.510;7.342;2023-05-19T00:25:13;9.10;99.90
26326;DHT22;14032;52.510;7.342;2023-05-19T00:27:38;9.10;99.90
26326;DHT22;14032;52.510;7.342;2023-05-19T00:30:04;9.00;99.90
26326;DHT22;14032;52.510;7.342;2023-05-19T00:32:30;9.00;99.90
26326;DHT22;14032;52.510;7.342;2023-05-19T00:34:55;9.00;99.90
26326;DHT22;14032;52.510;7.342;2023-05-19T00:37:21;8.90;99.90
26326;DHT22;14032;52.510;7.342;2023-05-19T00:39:47;8.90;99.90
26326;DHT22;14032;52.510;7.342;2023-05-19T00:42:13;8.90;99.90
26326;DHT22;14032;52.510;7.342;2023-05-19T00:44:40;8.80;99.90
26326;DHT22;14032;52.510;7.342;2023-05-19T00:47:06;8.80;99.90
26326;DHT22;14032;52.510;7.342;2023-05-19T00:49:32;8.70;99.90
26326;DHT22;14032;52.510;7.342;2023-05-19T00:51:59;8.70;99.90
26326;DHT22;14032;52.510;7.342;2023-05-19T00:54:25;8.60;99.90
26326;DHT22;14032;52.510;7.342;2023-05-19T00:56:52;8.60;99.90
26326;DHT22;14032;52.510;7.342;2023-05-19T00:59:18;8.60;99.90
26326;DHT22;14032;52.510;7.342;2023-05-19T01:04:20;8.50;99.90
26326;DHT22;14032;52.510;7.342;2023-05-19T01:06:49;8.50;99.90
26326;DHT22;14032;52.510;7.342;2023-05-19T01:09:20;8.40;99.90
26326;DHT22;14032;52.510;7.342;2023-05-19T01:11:49;8.50;99.90
26326;DHT22;14032;52.510;7.342;2023-05-19T01:14:14;8.40;99.90
26326;DHT22;14032;52.510;7.342;2023-05-19T01:16:47;8.30;99.90
26326;DHT22;14032;52.510;7.342;2023-05-19T01:19:55;8.30;99.90
26326;DHT22;14032;52.510;7.342;2023-05-19T01:22:37;8.30;99.90
26326;DHT22;14032;52.510;7.342;2023-05-19T01:28:21;8.30;99.90
26326;DHT22;14032;52.510;7.342;2023-05-19T01:30:55;8.20;99.90
26326;DHT22;14032;52.510;7.342;2023-05-19T01:33:23;8.20;99.90
26326;DHT22;14032;52.510;7.342;2023-05-19T01:35:49;8.20;99.90
26326;DHT22;14032;52.510;7.342;2023-05-19T01:38:17;8.20;99.90
26326;DHT22;14032;52.510;7.342;2023-05-19T01:40:44;8.10;99.90
26326;DHT22;14032;52.510;7.342;2023-05-19T01:43:14;8.10;99.90
26326;DHT22;14032;52.510;7.342;2023-05-19T01:45:41;8.00;99.90
26326;DHT22;14032;52.510;7.342;2023-05-19T01:48:07;8.00;99.90
26326;DHT22;14032;52.510;7.342;2023-05-19T01:50:33;8.00;99.90
26326;DHT22;14032;52.510;7.342;2023-05-19T01:52:59;8.00;99.90
26326;DHT22;14032;52.510;7.342;2023-05-19T01:55:25;8.00;99.90
26326;DHT22;14032;52.510;7.342;2023-05-19T02:00:51;7.90;99.90
26326;DHT22;14032;52.510;7.342;2023-05-19T02:06:48;7.90;99.90
26326;DHT22;14032;52.510;7.342;2023-05-19T02:09:25;7.90;99.90
26326;DHT22;14032;52.510;7.342;2023-05-19T02:14:40;7.80;99.90
26326;DHT22;14032;52.510;7.342;2023-05-19T02:17:07;7.80;99.90
26326;DHT22;14032;52.510;7.342;2023-05-19T02:19:38;7.80;99.90
26326;DHT22;14032;52.510;7.342;2023-05-19T02:22:04;7.80;99.90
26326;DHT22;14032;52.510;7.342;2023-05-19T02:24:30;7.80;99.90
26326;DHT22;14032;52.510;7.342;2023-05-19T02:26:55;7.80;99.90
26326;DHT22;14032;52.510;7.342;2023-05-19T02:29:21;7.80;99.90
26326;DHT22;14032;52.510;7.342;2023-05-19T02:31:47;7.80;99.90
26326;DHT22;14032;52.510;7.342;2023-05-19T02:34:13;7.70;99.90
26326;DHT22;14032;52.510;7.342;2023-05-19T02:36:40;7.70;99.90
26326;DHT22;14032;52.510;7.342;2023-05-19T02:39:10;7.70;99.90
26326;DHT22;14032;52.510;7.342;2023-05-19T02:41:39;7.70;99.90
26326;DHT22;14032;52.510;7.342;2023-05-19T02:44:04;7.70;99.90
26326;DHT22;14032;52.510;7.342;2023-05-19T02:46:30;7.60;99.90
26326;DHT22;14032;52.510;7.342;2023-05-19T02:48:55;7.60;99.90
26326;DHT22;14032;52.510;7.342;2023-05-19T02:51:21;7.60;99.90
26326;DHT22;14032;52.510;7.342;2023-05-19T02:53:47;7.60;99.90
26326;DHT22;14032;52.510;7.342;2023-05-19T02:56:12;7.60;99.90
26326;DHT22;14032;52.510;7.342;2023-05-19T02:58:38;7.60;99.90
26326;DHT22;14032;52.510;7.342;2023-05-19T03:01:04;7.60;99.90
26326;DHT22;14032;52.510;7.342;2023-05-19T03:03:29;7.60;99.90
26326;DHT22;14032;52.510;7.342;2023-05-19T03:05:55;7.50;99.90
26326;DHT22;14032;52.510;7.342;2023-05-19T03:08:21;7.50;99.90
26326;DHT22;14032;52.510;7.342;2023-05-19T03:10:47;7.40;99.90
26326;DHT22;14032;52.510;7.342;2023-05-19T03:13:12;7.40;99.90
26326;DHT22;14032;52.510;7.342;2023-05-19T03:15:38;7.40;99.90
26326;DHT22;14032;52.510;7.342;2023-05-19T03:18:04;7.40;99.90
26326;DHT22;14032;52.510;7.342;2023-05-19T03:20:30;7.40;99.90
26326;DHT22;14032;52.510;7.342;2023-05-19T03:22:56;7.40;99.90
26326;DHT22;14032;52.510;7.342;2023-05-19T03:25:22;7.30;99.90
26326;DHT22;14032;52.510;7.342;2023-05-19T03:27:47;7.30;99.90
26326;DHT22;14032;52.510;7.342;2023-05-19T03:30:13;7.30;99.90
26326;DHT22;14032;52.510;7.342;2023-05-19T03:32:39;7.20;99.90
26326;DHT22;14032;52.510;7.342;2023-05-19T03:35:05;7.30;99.90
26326;DHT22;14032;52.510;7.342;2023-05-19T03:37:31;7.30;99.90
26326;DHT22;14032;52.510;7.342;2023-05-19T03:39:59;7.20;99.90
26326;DHT22;14032;52.510;7.342;2023-05-19T03:42:25;7.20;99.90
26326;DHT22;14032;52.510;7.342;2023-05-19T03:44:50;7.20;99.90
26326;DHT22;14032;52.510;7.342;2023-05-19T03:47:16;7.20;99.90
26326;DHT22;14032;52.510;7.342;2023-05-19T03:49:42;7.20;99.90
26326;DHT22;14032;52.510;7.342;2023-05-19T03:52:07;7.20;99.90
26326;DHT22;14032;52.510;7.342;2023-05-19T03:54:34;7.20;99.90
26326;DHT22;14032;52.510;7.342;2023-05-19T03:57:00;7.20;99.90
26326;DHT22;14032;52.510;7.342;2023-05-19T03:59:26;7.20;99.90
26326;DHT22;14032;52.510;7.342;2023-05-19T04:01:52;7.20;99.90
26326;DHT22;14032;52.510;7.342;2023-05-19T04:04:18;7.20;99.90
26326;DHT22;14032;52.510;7.342;2023-05-19T04:06:43;7.20;99.90
26326;DHT22;14032;52.510;7.342;2023-05-19T04:09:13;7.20;99.90
26326;DHT22;14032;52.510;7.342;2023-05-19T04:11:40;7.20;99.90
26326;DHT22;14032;52.510;7.342;2023-05-19T04:14:06;7.30;99.90
26326;DHT22;14032;52.510;7.342;2023-05-19T04:16:32;7.30;99.90
26326;DHT22;14032;52.510;7.342;2023-05-19T04:18:58;7.30;99.90
26326;DHT22;14032;52.510;7.342;2023-05-19T04:21:24;7.30;99.90
26326;DHT22;14032;52.510;7.342;2023-05-19T04:23:50;7.30;99.90
26326;DHT22;14032;52.510;7.342;2023-05-19T04:26:15;7.40;99.90
26326;DHT22;14032;52.510;7.342;2023-05-19T04:28:42;7.40;99.90
26326;DHT22;14032;52.510;7.342;2023-05-19T04:31:09;7.40;99.90
26326;DHT22;14032;52.510;7.342;2023-05-19T04:33:37;7.50;99.90
26326;DHT22;14032;52.510;7.342;2023-05-19T04:36:03;7.50;99.90
26326;DHT22;14032;52.510;7.342;2023-05-19T04:38:36;7.60;99.90
26326;DHT22;14032;52.510;7.342;2023-05-19T04:41:02;7.60;99.90
26326;DHT22;14032;52.510;7.342;2023-05-19T04:43:28;7.70;99.90
26326;DHT22;14032;52.510;7.342;2023-05-19T04:45:54;7.80;99.90
26326;DHT22;14032;52.510;7.342;2023-05-19T04:48:20;7.80;99.90
26326;DHT22;14032;52.510;7.342;2023-05-19T04:50:49;7.90;99.90
26326;DHT22;14032;52.510;7.342;2023-05-19T04:53:16;8.00;99.90
26326;DHT22;14032;52.510;7.342;2023-05-19T04:55:43;8.00;99.90
26326;DHT22;14032;52.510;7.342;2023-05-19T04:58:08;8.10;99.90
26326;DHT22;14032;52.510;7.342;2023-05-19T05:00:35;8.20;99.90
26326;DHT22;14032;52.510;7.342;2023-05-19T05:03:01;8.30;99.90
26326;DHT22;14032;52.510;7.342;2023-05-19T05:05:29;8.40;99.90
26326;DHT22;14032;52.510;7.342;2023-05-19T05:07:55;8.50;99.90
26326;DHT22;14032;52.510;7.342;2023-05-19T05:10:21;8.60;99.90
26326;DHT22;14032;52.510;7.342;2023-05-19T05:12:47;8.70;99.90
26326;DHT22;14032;52.510;7.342;2023-05-19T05:15:13;8.80;99.90
26326;DHT22;14032;52.510;7.342;2023-05-19T05:17:39;9.00;99.90
26326;DHT22;14032;52.510;7.342;2023-05-19T05:20:05;9.10;99.90
26326;DHT22;14032;52.510;7.342;2023-05-19T05:22:31;9.20;99.90
26326;DHT22;14032;52.510;7.342;2023-05-19T05:24:58;9.30;99.90
26326;DHT22;14032;52.510;7.342;2023-05-19T05:27:23;9.50;99.90
26326;DHT22;14032;52.510;7.342;2023-05-19T05:29:49;9.60;99.90
26326;DHT22;14032;52.510;7.342;2023-05-19T05:32:14;9.70;99.90
26326;DHT22;14032;52.510;7.342;2023-05-19T05:34:41;10.00;99.90
26326;DHT22;14032;52.510;7.342;2023-05-19T05:37:07;10.00;99.90
26326;DHT22;14032;52.510;7.342;2023-05-19T05:39:32;10.10;99.90
26326;DHT22;14032;52.510;7.342;2023-05-19T05:41:58;10.20;99.90
26326;DHT22;14032;52.510;7.342;2023-05-19T05:44:23;10.40;99.90
26326;DHT22;14032;52.510;7.342;2023-05-19T05:46:49;10.50;99.90
26326;DHT22;14032;52.510;7.342;2023-05-19T05:49:15;10.60;99.90
26326;DHT22;14032;52.510;7.342;2023-05-19T05:51:41;10.70;99.90
26326;DHT22;14032;52.510;7.342;2023-05-19T05:54:07;10.70;99.90
26326;DHT22;14032;52.510;7.342;2023-05-19T05:56:35;10.80;99.90
26326;DHT22;14032;52.510;7.342;2023-05-19T05:59:01;11.00;99.90
26326;DHT22;14032;52.510;7.342;2023-05-19T06:01:30;11.00;99.90
26326;DHT22;14032;52.510;7.342;2023-05-19T06:03:56;11.20;99.90
26326;DHT22;14032;52.510;7.342;2023-05-19T06:06:21;11.40;99.90
26326;DHT22;14032;52.510;7.342;2023-05-19T06:08:47;11.50;99.90
26326;DHT22;14032;52.510;7.342;2023-05-19T06:11:13;11.60;99.90
26326;DHT22;14032;52.510;7.342;2023-05-19T06:13:38;11.70;99.90
26326;DHT22;14032;52.510;7.342;2023-05-19T06:16:05;11.80;99.90
26326;DHT22;14032;52.510;7.342;2023-05-19T06:18:31;12.00;99.90
26326;DHT22;14032;52.510;7.342;2023-05-19T06:20:57;12.10;99.90
26326;DHT22;14032;52.510;7.342;2023-05-19T06:23:23;12.20;99.90
26326;DHT22;14032;52.510;7.342;2023-05-19T06:25:49;12.40;99.90
26326;DHT22;14032;52.510;7.342;2023-05-19T06:28:15;12.50;99.90
26326;DHT22;14032;52.510;7.342;2023-05-19T06:30:41;12.70;99.90
26326;DHT22;14032;52.510;7.342;2023-05-19T06:33:06;12.80;99.90
26326;DHT22;14032;52.510;7.342;2023-05-19T06:35:32;12.90;99.90
26326;DHT22;14032;52.510;7.342;2023-05-19T06:37:58;12.80;99.90
26326;DHT22;14032;52.510;7.342;2023-05-19T06:40:23;12.90;99.90
26326;DHT22;14032;52.510;7.342;2023-05-19T06:42:49;12.90;99.90
26326;DHT22;14032;52.510;7.342;2023-05-19T06:45:15;13.00;99.90
26326;DHT22;14032;52.510;7.342;2023-05-19T06:47:40;13.00;99.90
26326;DHT22;14032;52.510;7.342;2023-05-19T06:50:09;13.10;99.90
26326;DHT22;14032;52.510;7.342;2023-05-19T06:52:36;13.10;99.90
26326;DHT22;14032;52.510;7.342;2023-05-19T06:55:01;13.20;99.90
26326;DHT22;14032;52.510;7.342;2023-05-19T06:57:27;13.20;99.90
26326;DHT22;14032;52.510;7.342;2023-05-19T06:59:52;13.30;99.90
26326;DHT22;14032;52.510;7.342;2023-05-19T07:02:18;13.40;99.90
26326;DHT22;14032;52.510;7.342;2023-05-19T07:04:44;13.40;99.90
26326;DHT22;14032;52.510;7.342;2023-05-19T07:07:09;13.60;99.90
26326;DHT22;14032;52.510;7.342;2023-05-19T07:09:35;13.70;99.90
26326;DHT22;14032;52.510;7.342;2023-05-19T07:12:00;13.80;99.90
26326;DHT22;14032;52.510;7.342;2023-05-19T07:14:26;13.90;99.90
26326;DHT22;14032;52.510;7.342;2023-05-19T07:16:52;13.90;99.90
26326;DHT22;14032;52.510;7.342;2023-05-19T07:19:18;14.10;99.90
26326;DHT22;14032;52.510;7.342;2023-05-19T07:21:45;14.30;99.90
26326;DHT22;14032;52.510;7.342;2023-05-19T07:24:10;14.40;99.90
26326;DHT22;14032;52.510;7.342;2023-05-19T07:26:36;14.60;99.90
26326;DHT22;14032;52.510;7.342;2023-05-19T07:29:02;14.70;99.90
26326;DHT22;14032;52.510;7.342;2023-05-19T07:31:27;14.90;99.90
26326;DHT22;14032;52.510;7.342;2023-05-19T07:33:53;15.00;99.90
26326;DHT22;14032;52.510;7.342;2023-05-19T07:36:18;15.10;99.90
26326;DHT22;14032;52.510;7.342;2023-05-19T07:38:45;15.20;99.90
26326;DHT22;14032;52.510;7.342;2023-05-19T07:41:11;15.40;99.90
26326;DHT22;14032;52.510;7.342;2023-05-19T07:43:36;15.50;99.90
26326;DHT22;14032;52.510;7.342;2023-05-19T07:46:02;15.60;99.90
26326;DHT22;14032;52.510;7.342;2023-05-19T07:48:28;15.80;99.90
26326;DHT22;14032;52.510;7.342;2023-05-19T07:50:54;15.90;99.90
26326;DHT22;14032;52.510;7.342;2023-05-19T07:53:19;16.10;99.90
26326;DHT22;14032;52.510;7.342;2023-05-19T07:55:45;16.10;99.90
26326;DHT22;14032;52.510;7.342;2023-05-19T07:58:11;16.20;99.90
26326;DHT22;14032;52.510;7.342;2023-05-19T08:00:36;16.30;99.90
26326;DHT22;14032;52.510;7.342;2023-05-19T08:03:02;16.50;99.90
26326;DHT22;14032;52.510;7.342;2023-05-19T08:05:28;16.60;99.90
26326;DHT22;14032;52.510;7.342;2023-05-19T08:07:54;16.60;99.90
26326;DHT22;14032;52.510;7.342;2023-05-19T08:10:20;16.80;99.90
26326;DHT22;14032;52.510;7.342;2023-05-19T08:12:46;16.90;99.90
26326;DHT22;14032;52.510;7.342;2023-05-19T08:15:12;16.90;99.90
26326;DHT22;14032;52.510;7.342;2023-05-19T08:17:37;17.00;99.90
26326;DHT22;14032;52.510;7.342;2023-05-19T08:20:06;17.10;99.90
26326;DHT22;14032;52.510;7.342;2023-05-19T08:22:34;17.20;99.90
26326;DHT22;14032;52.510;7.342;2023-05-19T08:25:00;17.30;99.90
26326;DHT22;14032;52.510;7.342;2023-05-19T08:27:25;17.30;99.60
26326;DHT22;14032;52.510;7.342;2023-05-19T08:29:51;17.20;99.20
26326;DHT22;14032;52.510;7.342;2023-05-19T08:32:17;17.40;99.60
26326;DHT22;14032;52.510;7.342;2023-05-19T08:34:42;17.50;98.20
26326;DHT22;14032;52.510;7.342;2023-05-19T08:37:09;17.60;97.90
26326;DHT22;14032;52.510;7.342;2023-05-19T08:39:36;17.70;98.20
26326;DHT22;14032;52.510;7.342;2023-05-19T08:42:01;17.90;96.60
26326;DHT22;14032;52.510;7.342;2023-05-19T08:44:27;17.90;96.00
26326;DHT22;14032;52.510;7.342;2023-05-19T08:46:55;18.00;95.40
26326;DHT22;14032;52.510;7.342;2023-05-19T08:49:26;18.00;95.10
26326;DHT22;14032;52.510;7.342;2023-05-19T08:52:05;18.00;95.20
26326;DHT22;14032;52.510;7.342;2023-05-19T08:57:25;18.00;94.90
26326;DHT22;14032;52.510;7.342;2023-05-19T08:59:51;18.00;95.40
26326;DHT22;14032;52.510;7.342;2023-05-19T09:02:18;18.00;95.10
26326;DHT22;14032;52.510;7.342;2023-05-19T09:04:46;18.10;94.30
26326;DHT22;14032;52.510;7.342;2023-05-19T09:07:14;18.10;93.00
26326;DHT22;14032;52.510;7.342;2023-05-19T09:09:40;18.00;92.50
26326;DHT22;14032;52.510;7.342;2023-05-19T09:12:09;18.10;93.30
26326;DHT22;14032;52.510;7.342;2023-05-19T09:14:36;18.10;92.50
26326;DHT22;14032;52.510;7.342;2023-05-19T09:17:01;18.10;91.80
26326;DHT22;14032;52.510;7.342;2023-05-19T09:19:28;18.10;92.50
26326;DHT22;14032;52.510;7.342;2023-05-19T09:21:58;18.10;92.30
26326;DHT22;14032;52.510;7.342;2023-05-19T09:24:29;18.20;92.60
26326;DHT22;14032;52.510;7.342;2023-05-19T09:26:55;18.20;92.40
26326;DHT22;14032;52.510;7.342;2023-05-19T09:29:21;18.20;93.00
26326;DHT22;14032;52.510;7.342;2023-05-19T09:31:54;18.40;92.60
26326;DHT22;14032;52.510;7.342;2023-05-19T09:34:29;18.50;92.50
26326;DHT22;14032;52.510;7.342;2023-05-19T09:36:55;18.40;92.00
26326;DHT22;14032;52.510;7.342;2023-05-19T09:39:24;18.20;92.10
26326;DHT22;14032;52.510;7.342;2023-05-19T09:41:51;18.10;92.50
26326;DHT22;14032;52.510;7.342;2023-05-19T09:46:47;18.20;92.60
26326;DHT22;14032;52.510;7.342;2023-05-19T09:49:18;18.30;92.30
26326;DHT22;14032;52.510;7.342;2023-05-19T09:51:44;18.40;92.10
26326;DHT22;14032;52.510;7.342;2023-05-19T09:54:14;18.60;91.30
26326;DHT22;14032;52.510;7.342;2023-05-19T09:56:40;18.70;91.40
26326;DHT22;14032;52.510;7.342;2023-05-19T09:59:06;18.80;90.50
26326;DHT22;14032;52.510;7.342;2023-05-19T10:01:32;18.60;91.10
26326;DHT22;14032;52.510;7.342;2023-05-19T10:03:59;18.50;91.50
26326;DHT22;14032;52.510;7.342;2023-05-19T10:06:25;18.40;91.90
26326;DHT22;14032;52.510;7.342;2023-05-19T10:08:52;18.30;90.10
26326;DHT22;14032;52.510;7.342;2023-05-19T10:11:19;18.20;90.70
26326;DHT22;14032;52.510;7.342;2023-05-19T10:13:50;18.10;91.50
26326;DHT22;14032;52.510;7.342;2023-05-19T10:16:16;18.20;90.70
26326;DHT22;14032;52.510;7.342;2023-05-19T10:18:42;18.20;87.60
26326;DHT22;14032;52.510;7.342;2023-05-19T10:21:08;18.40;86.30
26326;DHT22;14032;52.510;7.342;2023-05-19T10:23:34;18.40;85.90
26326;DHT22;14032;52.510;7.342;2023-05-19T10:26:02;18.50;86.40
26326;DHT22;14032;52.510;7.342;2023-05-19T10:28:40;18.60;85.60
26326;DHT22;14032;52.510;7.342;2023-05-19T10:31:10;18.50;87.40
26326;DHT22;14032;52.510;7.342;2023-05-19T10:36:50;18.40;88.00
26326;DHT22;14032;52.510;7.342;2023-05-19T10:39:24;18.30;88.60
26326;DHT22;14032;52.510;7.342;2023-05-19T10:41:55;18.10;89.70
26326;DHT22;14032;52.510;7.342;2023-05-19T10:44:52;18.00;90.40
26326;DHT22;14032;52.510;7.342;2023-05-19T10:47:25;18.10;89.80
26326;DHT22;14032;52.510;7.342;2023-05-19T10:49:54;18.00;89.40
26326;DHT22;14032;52.510;7.342;2023-05-19T10:52:23;18.00;88.70
26326;DHT22;14032;52.510;7.342;2023-05-19T10:54:53;18.10;89.00
26326;DHT22;14032;52.510;7.342;2023-05-19T10:57:26;18.10;89.70
26326;DHT22;14032;52.510;7.342;2023-05-19T10:59:53;18.10;90.00
26326;DHT22;14032;52.510;7.342;2023-05-19T11:02:38;18.10;90.10
26326;DHT22;14032;52.510;7.342;2023-05-19T11:05:10;18.10;89.60
26326;DHT22;14032;52.510;7.342;2023-05-19T11:07:40;18.10;89.10
26326;DHT22;14032;52.510;7.342;2023-05-19T11:10:07;18.10;89.30
26326;DHT22;14032;52.510;7.342;2023-05-19T11:12:40;18.00;87.60
26326;DHT22;14032;52.510;7.342;2023-05-19T11:15:18;18.00;87.20
26326;DHT22;14032;52.510;7.342;2023-05-19T11:17:55;18.10;88.70
26326;DHT22;14032;52.510;7.342;2023-05-19T11:20:28;18.30;88.20
26326;DHT22;14032;52.510;7.342;2023-05-19T11:23:07;18.70;88.10
26326;DHT22;14032;52.510;7.342;2023-05-19T11:25:45;19.10;85.80
26326;DHT22;14032;52.510;7.342;2023-05-19T11:28:14;19.10;85.30
26326;DHT22;14032;52.510;7.342;2023-05-19T11:30:44;19.00;85.80
26326;DHT22;14032;52.510;7.342;2023-05-19T11:33:11;19.00;85.70
26326;DHT22;14032;52.510;7.342;2023-05-19T11:35:38;18.90;86.20
26326;DHT22;14032;52.510;7.342;2023-05-19T11:38:05;18.70;85.40
26326;DHT22;14032;52.510;7.342;2023-05-19T11:40:31;18.60;84.70
26326;DHT22;14032;52.510;7.342;2023-05-19T11:42:57;18.50;86.50
26326;DHT22;14032;52.510;7.342;2023-05-19T11:45:28;18.40;85.50
26326;DHT22;14032;52.510;7.342;2023-05-19T11:47:57;18.40;87.20
26326;DHT22;14032;52.510;7.342;2023-05-19T11:50:23;18.40;87.90
26326;DHT22;14032;52.510;7.342;2023-05-19T11:52:53;18.50;86.70
26326;DHT22;14032;52.510;7.342;2023-05-19T11:55:20;18.70;85.00
26326;DHT22;14032;52.510;7.342;2023-05-19T11:58:01;19.00;86.50
26326;DHT22;14032;52.510;7.342;2023-05-19T12:00:28;19.20;83.70
26326;DHT22;14032;52.510;7.342;2023-05-19T12:02:56;19.20;83.30
26326;DHT22;14032;52.510;7.342;2023-05-19T12:05:25;19.10;82.90
26326;DHT22;14032;52.510;7.342;2023-05-19T12:07:52;19.00;83.50
26326;DHT22;14032;52.510;7.342;2023-05-19T12:10:29;19.00;84.10
26326;DHT22;14032;52.510;7.342;2023-05-19T12:12:55;18.90;83.00
26326;DHT22;14032;52.510;7.342;2023-05-19T12:15:24;18.90;82.40
26326;DHT22;14032;52.510;7.342;2023-05-19T12:18:00;19.00;79.70
26326;DHT22;14032;52.510;7.342;2023-05-19T12:20:27;18.90;79.30
26326;DHT22;14032;52.510;7.342;2023-05-19T12:22:57;18.90;80.40
26326;DHT22;14032;52.510;7.342;2023-05-19T12:25:25;19.00;81.00
26326;DHT22;14032;52.510;7.342;2023-05-19T12:27:51;18.90;81.90
26326;DHT22;14032;52.510;7.342;2023-05-19T12:30:25;18.80;83.00
26326;DHT22;14032;52.510;7.342;2023-05-19T12:32:53;18.70;82.80
26326;DHT22;14032;52.510;7.342;2023-05-19T12:35:18;18.50;81.40
26326;DHT22;14032;52.510;7.342;2023-05-19T12:37:44;18.50;83.00
26326;DHT22;14032;52.510;7.342;2023-05-19T12:40:14;18.50;81.60
26326;DHT22;14032;52.510;7.342;2023-05-19T12:42:43;18.50;81.80
26326;DHT22;14032;52.510;7.342;2023-05-19T12:45:09;18.50;82.00
26326;DHT22;14032;52.510;7.342;2023-05-19T12:47:35;18.60;82.80
26326;DHT22;14032;52.510;7.342;2023-05-19T12:52:41;18.40;82.70
26326;DHT22;14032;52.510;7.342;2023-05-19T12:55:08;18.30;83.20
26326;DHT22;14032;52.510;7.342;2023-05-19T12:57:39;18.30;83.30
26326;DHT22;14032;52.510;7.342;2023-05-19T13:00:07;18.20;83.20
26326;DHT22;14032;52.510;7.342;2023-05-19T13:02:35;18.30;83.00
26326;DHT22;14032;52.510;7.342;2023-05-19T13:05:19;18.30;82.50
26326;DHT22;14032;52.510;7.342;2023-05-19T13:08:04;18.40;81.80
26326;DHT22;14032;52.510;7.342;2023-05-19T13:10:30;18.40;81.50
26326;DHT22;14032;52.510;7.342;2023-05-19T13:12:57;18.40;82.40
26326;DHT22;14032;52.510;7.342;2023-05-19T13:15:24;18.40;82.40
26326;DHT22;14032;52.510;7.342;2023-05-19T13:17:53;18.40;83.40
26326;DHT22;14032;52.510;7.342;2023-05-19T13:20:20;18.40;82.10
26326;DHT22;14032;52.510;7.342;2023-05-19T13:22:46;18.30;81.50
26326;DHT22;14032;52.510;7.342;2023-05-19T13:25:12;18.20;82.30
26326;DHT22;14032;52.510;7.342;2023-05-19T13:27:38;18.20;83.00
26326;DHT22;14032;52.510;7.342;2023-05-19T13:30:04;18.30;83.00
26326;DHT22;14032;52.510;7.342;2023-05-19T13:32:30;18.40;83.20
26326;DHT22;14032;52.510;7.342;2023-05-19T13:34:56;18.50;82.60
26326;DHT22;14032;52.510;7.342;2023-05-19T13:37:22;18.40;82.80
26326;DHT22;14032;52.510;7.342;2023-05-19T13:39:47;18.40;83.70
26326;DHT22;14032;52.510;7.342;2023-05-19T13:42:14;18.30;83.80
26326;DHT22;14032;52.510;7.342;2023-05-19T13:44:42;18.30;83.10
26326;DHT22;14032;52.510;7.342;2023-05-19T13:47:07;18.30;82.30
26326;DHT22;14032;52.510;7.342;2023-05-19T13:49:33;18.40;83.50
26326;DHT22;14032;52.510;7.342;2023-05-19T13:51:58;18.40;83.70
26326;DHT22;14032;52.510;7.342;2023-05-19T13:54:24;18.50;83.50
26326;DHT22;14032;52.510;7.342;2023-05-19T13:56:50;18.50;83.60
26326;DHT22;14032;52.510;7.342;2023-05-19T13:59:15;18.50;82.80
26326;DHT22;14032;52.510;7.342;2023-05-19T14:01:45;18.50;83.00
26326;DHT22;14032;52.510;7.342;2023-05-19T14:04:11;18.50;83.20
26326;DHT22;14032;52.510;7.342;2023-05-19T14:06:37;18.50;83.20
26326;DHT22;14032;52.510;7.342;2023-05-19T14:09:03;18.40;83.70
26326;DHT22;14032;52.510;7.342;2023-05-19T14:11:28;18.40;84.20
26326;DHT22;14032;52.510;7.342;2023-05-19T14:13:54;18.30;82.40
26326;DHT22;14032;52.510;7.342;2023-05-19T14:16:20;18.30;81.70
26326;DHT22;14032;52.510;7.342;2023-05-19T14:18:51;18.30;82.80
26326;DHT22;14032;52.510;7.342;2023-05-19T14:21:17;18.40;82.30
26326;DHT22;14032;52.510;7.342;2023-05-19T14:23:43;18.50;82.20
26326;DHT22;14032;52.510;7.342;2023-05-19T14:26:08;18.40;81.80
26326;DHT22;14032;52.510;7.342;2023-05-19T14:28:34;18.40;82.60
26326;DHT22;14032;52.510;7.342;2023-05-19T14:30:59;18.30;83.00
26326;DHT22;14032;52.510;7.342;2023-05-19T14:33:25;18.30;83.10
26326;DHT22;14032;52.510;7.342;2023-05-19T14:35:51;18.50;82.00
26326;DHT22;14032;52.510;7.342;2023-05-19T14:38:17;18.50;82.30
26326;DHT22;14032;52.510;7.342;2023-05-19T14:40:43;18.60;82.00
26326;DHT22;14032;52.510;7.342;2023-05-19T14:43:09;18.60;82.60
26326;DHT22;14032;52.510;7.342;2023-05-19T14:45:36;18.50;81.80
26326;DHT22;14032;52.510;7.342;2023-05-19T14:48:02;18.40;82.80
26326;DHT22;14032;52.510;7.342;2023-05-19T14:50:28;18.30;82.80
26326;DHT22;14032;52.510;7.342;2023-05-19T14:52:53;18.20;82.20
26326;DHT22;14032;52.510;7.342;2023-05-19T14:55:19;18.20;81.70
26326;DHT22;14032;52.510;7.342;2023-05-19T14:57:45;18.20;80.60
26326;DHT22;14032;52.510;7.342;2023-05-19T15:00:11;18.30;81.40
26326;DHT22;14032;52.510;7.342;2023-05-19T15:02:37;18.40;79.30
26326;DHT22;14032;52.510;7.342;2023-05-19T15:05:03;18.50;79.70
26326;DHT22;14032;52.510;7.342;2023-05-19T15:07:29;18.50;78.90
26326;DHT22;14032;52.510;7.342;2023-05-19T15:09:55;18.50;80.40
26326;DHT22;14032;52.510;7.342;2023-05-19T15:12:20;18.40;80.00
26326;DHT22;14032;52.510;7.342;2023-05-19T15:14:46;18.40;78.90
26326;DHT22;14032;52.510;7.342;2023-05-19T15:17:11;18.50;78.50
26326;DHT22;14032;52.510;7.342;2023-05-19T15:19:37;18.50;79.30
26326;DHT22;14032;52.510;7.342;2023-05-19T15:22:05;18.60;80.00
26326;DHT22;14032;52.510;7.342;2023-05-19T15:24:30;18.60;80.60
26326;DHT22;14032;52.510;7.342;2023-05-19T15:26:56;18.50;80.30
26326;DHT22;14032;52.510;7.342;2023-05-19T15:29:21;18.50;80.40
26326;DHT22;14032;52.510;7.342;2023-05-19T15:31:50;18.40;79.90
26326;DHT22;14032;52.510;7.342;2023-05-19T15:34:17;18.50;81.20
26326;DHT22;14032;52.510;7.342;2023-05-19T15:36:42;18.50;79.30
26326;DHT22;14032;52.510;7.342;2023-05-19T15:39:08;18.50;78.90
26326;DHT22;14032;52.510;7.342;2023-05-19T15:41:34;18.40;78.80
26326;DHT22;14032;52.510;7.342;2023-05-19T15:43:59;18.30;79.50
26326;DHT22;14032;52.510;7.342;2023-05-19T15:46:29;18.30;79.20
26326;DHT22;14032;52.510;7.342;2023-05-19T15:48:55;18.40;79.50
26326;DHT22;14032;52.510;7.342;2023-05-19T15:51:21;18.40;79.10
26326;DHT22;14032;52.510;7.342;2023-05-19T15:53:46;18.40;79.00
26326;DHT22;14032;52.510;7.342;2023-05-19T15:56:12;18.40;78.80
26326;DHT22;14032;52.510;7.342;2023-05-19T15:58:38;18.50;77.70
26326;DHT22;14032;52.510;7.342;2023-05-19T16:01:03;18.30;77.60